sensor_id;sensor_type;location;lat;lon;timestamp;temperature;humidity
26254;DHT22;53339;51.378;0.094;2023-10-08T00:00:07;18.20;74.70
26254;DHT22;53339;51.378;0.094;2023-10-08T00:02:55;18.20;74.70
26254;DHT22;53339;51.378;0.094;2023-10-08T00:05:26;18.10;74.70
26254;DHT22;53339;51.378;0.094;2023-10-08T00:07:58;18.20;74.70
26254;DHT22;53339;51.378;0.094;2023-10-08T00:10:27;18.10;74.70
26254;DHT22;53339;51.378;0.094;2023-10-08T00:12:58;18.10;74.70
26254;DHT22;53339;51.378;0.094;2023-10-08T00:15:32;18.00;74.70
26254;DHT22;53339;51.378;0.094;2023-10-08T00:18:13;18.00;74.80
26254;DHT22;53339;51.378;0.094;2023-10-08T00:20:49;18.00;74.70
26254;DHT22;53339;51.378;0.094;2023-10-08T00:23:43;17.90;74.70
26254;DHT22;53339;51.378;0.094;2023-10-08T00:26:20;17.90;74.70
26254;DHT22;53339;51.378;0.094;2023-10-08T00:29:04;18.00;74.80
26254;DHT22;53339;51.378;0.094;2023-10-08T00:31:45;17.90;74.70
26254;DHT22;53339;51.378;0.094;2023-10-08T00:34:14;18.00;74.70
26254;DHT22;53339;51.378;0.094;2023-10-08T00:36:43;17.90;74.70
26254;DHT22;53339;51.378;0.094;2023-10-08T00:39:13;17.90;74.70
26254;DHT22;53339;51.378;0.094;2023-10-08T00:41:45;17.90;74.70
26254;DHT22;53339;51.378;0.094;2023-10-08T00:44:14;17.90;74.60
26254;DHT22;53339;51.378;0.094;2023-10-08T00:46:51;17.90;74.60
26254;DHT22;53339;51.378;0.094;2023-10-08T00:49:29;18.00;74.60
26254;DHT22;53339;51.378;0.094;2023-10-08T00:52:13;18.00;74.50
26254;DHT22;53339;51.378;0.094;2023-10-08T00:54:43;18.00;74.40
26254;DHT22;53339;51.378;0.094;2023-10-08T00:57:20;18.00;74.40
26254;DHT22;53339;51.378;0.094;2023-10-08T01:00:07;18.10;74.30
26254;DHT22;53339;51.378;0.094;2023-10-08T01:02:43;18.10;74.20
26254;DHT22;53339;51.378;0.094;2023-10-08T01:05:17;18.10;74.30
26254;DHT22;53339;51.378;0.094;2023-10-08T01:07:52;18.10;74.30
26254;DHT22;53339;51.378;0.094;2023-10-08T01:10:23;18.10;74.20
26254;DHT22;53339;51.378;0.094;2023-10-08T01:12:53;18.10;74.30
26254;DHT22;53339;51.378;0.094;2023-10-08T01:15:23;18.10;74.30
26254;DHT22;53339;51.378;0.094;2023-10-08T01:17:56;18.10;74.40
26254;DHT22;53339;51.378;0.094;2023-10-08T01:20:40;18.00;74.40
26254;DHT22;53339;51.378;0.094;2023-10-08T01:23:17;18.10;74.50
26254;DHT22;53339;51.378;0.094;2023-10-08T01:25:54;18.10;74.60
26254;DHT22;53339;51.378;0.094;2023-10-08T01:28:50;18.00;74.70
26254;DHT22;53339;51.378;0.094;2023-10-08T01:31:21;18.00;74.70
26254;DHT22;53339;51.378;0.094;2023-10-08T01:33:59;18.10;74.80
26254;DHT22;53339;51.378;0.094;2023-10-08T01:36:37;18.10;74.70
26254;DHT22;53339;51.378;0.094;2023-10-08T01:39:06;18.10;74.80
26254;DHT22;53339;51.378;0.094;2023-10-08T01:41:38;18.00;74.80
26254;DHT22;53339;51.378;0.094;2023-10-08T01:44:14;18.00;74.90
26254;DHT22;53339;51.378;0.094;2023-10-08T01:46:55;17.90;74.90
26254;DHT22;53339;51.378;0.094;2023-10-08T01:49:27;17.90;75.00
26254;DHT22;53339;51.378;0.094;2023-10-08T01:52:00;18.00;75.10
26254;DHT22;53339;51.378;0.094;2023-10-08T01:54:35;17.90;75.10
26254;DHT22;53339;51.378;0.094;2023-10-08T01:57:04;18.00;75.10
26254;DHT22;53339;51.378;0.094;2023-10-08T01:59:33;18.00;75.10
26254;DHT22;53339;51.378;0.094;2023-10-08T02:02:02;18.00;75.10
26254;DHT22;53339;51.378;0.094;2023-10-08T02:04:30;18.00;75.20
26254;DHT22;53339;51.378;0.094;2023-10-08T02:06:58;18.00;75.20
26254;DHT22;53339;51.378;0.094;2023-10-08T02:09:31;17.90;75.10
26254;DHT22;53339;51.378;0.094;2023-10-08T02:12:07;18.00;75.10
26254;DHT22;53339;51.378;0.094;2023-10-08T02:14:41;17.90;75.20
26254;DHT22;53339;51.378;0.094;2023-10-08T02:17:13;17.90;75.20
26254;DHT22;53339;51.378;0.094;2023-10-08T02:19:45;17.90;75.30
26254;DHT22;53339;51.378;0.094;2023-10-08T02:22:17;17.90;75.30
26254;DHT22;53339;51.378;0.094;2023-10-08T02:24:56;17.80;75.30
26254;DHT22;53339;51.378;0.094;2023-10-08T02:27:29;17.80;75.40
26254;DHT22;53339;51.378;0.094;2023-10-08T02:30:06;17.80;75.50
26254;DHT22;53339;51.378;0.094;2023-10-08T02:32:44;17.80;75.50
26254;DHT22;53339;51.378;0.094;2023-10-08T02:35:18;17.70;75.60
26254;DHT22;53339;51.378;0.094;2023-10-08T02:38:04;17.70;75.70
26254;DHT22;53339;51.378;0.094;2023-10-08T02:40:37;17.70;75.60
26254;DHT22;53339;51.378;0.094;2023-10-08T02:43:08;17.70;75.60
26254;DHT22;53339;51.378;0.094;2023-10-08T02:45:36;17.60;75.60
26254;DHT22;53339;51.378;0.094;2023-10-08T02:48:09;17.60;75.60
26254;DHT22;53339;51.378;0.094;2023-10-08T02:50:42;17.50;75.70
26254;DHT22;53339;51.378;0.094;2023-10-08T02:53:16;17.40;75.70
26254;DHT22;53339;51.378;0.094;2023-10-08T02:55:54;17.40;75.80
26254;DHT22;53339;51.378;0.094;2023-10-08T02:58:29;17.40;75.90
26254;DHT22;53339;51.378;0.094;2023-10-08T03:01:07;17.30;76.00
26254;DHT22;53339;51.378;0.094;2023-10-08T03:03:47;17.20;76.20
26254;DHT22;53339;51.378;0.094;2023-10-08T03:06:18;17.20;76.20
26254;DHT22;53339;51.378;0.094;2023-10-08T03:08:49;17.20;76.10
26254;DHT22;53339;51.378;0.094;2023-10-08T03:11:24;17.10;76.10
26254;DHT22;53339;51.378;0.094;2023-10-08T03:13:56;17.10;76.10
26254;DHT22;53339;51.378;0.094;2023-10-08T03:16:29;17.00;76.10
26254;DHT22;53339;51.378;0.094;2023-10-08T03:19:05;16.90;76.20
26254;DHT22;53339;51.378;0.094;2023-10-08T03:24:25;16.80;76.50
26254;DHT22;53339;51.378;0.094;2023-10-08T03:27:06;16.70;76.70
26254;DHT22;53339;51.378;0.094;2023-10-08T03:29:48;16.70;76.80
26254;DHT22;53339;51.378;0.094;2023-10-08T03:32:16;16.60;76.80
26254;DHT22;53339;51.378;0.094;2023-10-08T03:34:49;16.60;76.80
26254;DHT22;53339;51.378;0.094;2023-10-08T03:37:19;16.60;76.70
26254;DHT22;53339;51.378;0.094;2023-10-08T03:39:49;16.60;76.80
26254;DHT22;53339;51.378;0.094;2023-10-08T03:42:29;16.50;76.80
26254;DHT22;53339;51.378;0.094;2023-10-08T03:45:07;16.50;76.70
26254;DHT22;53339;51.378;0.094;2023-10-08T03:47:40;16.50;76.80
26254;DHT22;53339;51.378;0.094;2023-10-08T03:50:24;16.40;76.70
26254;DHT22;53339;51.378;0.094;2023-10-08T03:53:02;16.40;76.70
26254;DHT22;53339;51.378;0.094;2023-10-08T03:55:30;16.40;76.80
26254;DHT22;53339;51.378;0.094;2023-10-08T03:58:03;16.30;76.80
26254;DHT22;53339;51.378;0.094;2023-10-08T04:00:35;16.30;76.80
26254;DHT22;53339;51.378;0.094;2023-10-08T04:03:14;16.20;76.90
26254;DHT22;53339;51.378;0.094;2023-10-08T04:05:56;16.20;76.90
26254;DHT22;53339;51.378;0.094;2023-10-08T04:08:45;16.00;77.00
26254;DHT22;53339;51.378;0.094;2023-10-08T04:11:31;15.90;77.10
26254;DHT22;53339;51.378;0.094;2023-10-08T04:14:16;15.80;77.40
26254;DHT22;53339;51.378;0.094;2023-10-08T04:16:44;15.70;77.50
26254;DHT22;53339;51.378;0.094;2023-10-08T04:19:12;15.70;77.60
26254;DHT22;53339;51.378;0.094;2023-10-08T04:21:40;15.70;77.60
26254;DHT22;53339;51.378;0.094;2023-10-08T04:24:11;15.70;77.60
26254;DHT22;53339;51.378;0.094;2023-10-08T04:26:42;15.70;77.60
26254;DHT22;53339;51.378;0.094;2023-10-08T04:29:11;15.70;77.60
26254;DHT22;53339;51.378;0.094;2023-10-08T04:31:45;15.70;77.60
26254;DHT22;53339;51.378;0.094;2023-10-08T04:34:24;15.70;77.60
26254;DHT22;53339;51.378;0.094;2023-10-08T04:37:17;15.70;77.60
26254;DHT22;53339;51.378;0.094;2023-10-08T04:39:49;15.60;77.60
26254;DHT22;53339;51.378;0.094;2023-10-08T04:42:26;15.60;77.60
26254;DHT22;53339;51.378;0.094;2023-10-08T04:44:57;15.60;77.70
26254;DHT22;53339;51.378;0.094;2023-10-08T04:47:49;15.50;77.70
26254;DHT22;53339;51.378;0.094;2023-10-08T04:50:25;15.50;77.70
26254;DHT22;53339;51.378;0.094;2023-10-08T04:52:58;15.40;77.80
26254;DHT22;53339;51.378;0.094;2023-10-08T04:55:43;15.40;77.90
26254;DHT22;53339;51.378;0.094;2023-10-08T04:58:18;15.40;78.00
26254;DHT22;53339;51.378;0.094;2023-10-08T05:01:13;15.40;78.10
26254;DHT22;53339;51.378;0.094;2023-10-08T05:04:09;15.40;78.10
26254;DHT22;53339;51.378;0.094;2023-10-08T05:07:09;15.40;78.20
26254;DHT22;53339;51.378;0.094;2023-10-08T05:10:00;15.40;78.20
26254;DHT22;53339;51.378;0.094;2023-10-08T05:12:31;15.40;78.20
26254;DHT22;53339;51.378;0.094;2023-10-08T05:15:06;15.50;78.30
26254;DHT22;53339;51.378;0.094;2023-10-08T05:17:44;15.50;78.30
26254;DHT22;53339;51.378;0.094;2023-10-08T05:20:34;15.50;78.30
26254;DHT22;53339;51.378;0.094;2023-10-08T05:23:26;15.50;78.30
26254;DHT22;53339;51.378;0.094;2023-10-08T05:26:08;15.50;78.30
26254;DHT22;53339;51.378;0.094;2023-10-08T05:29:00;15.50;78.30
26254;DHT22;53339;51.378;0.094;2023-10-08T05:31:46;15.50;78.30
26254;DHT22;53339;51.378;0.094;2023-10-08T05:34:24;15.40;78.20
26254;DHT22;53339;51.378;0.094;2023-10-08T05:37:01;15.40;78.20
26254;DHT22;53339;51.378;0.094;2023-10-08T05:39:48;15.20;78.50
26254;DHT22;53339;51.378;0.094;2023-10-08T05:42:23;15.10;78.70
26254;DHT22;53339;51.378;0.094;2023-10-08T05:45:00;15.10;79.00
26254;DHT22;53339;51.378;0.094;2023-10-08T05:48:06;15.00;79.30
26254;DHT22;53339;51.378;0.094;2023-10-08T05:50:41;15.10;79.30
26254;DHT22;53339;51.378;0.094;2023-10-08T05:53:24;15.10;79.20
26254;DHT22;53339;51.378;0.094;2023-10-08T05:56:22;15.10;79.10
26254;DHT22;53339;51.378;0.094;2023-10-08T05:59:04;15.10;79.10
26254;DHT22;53339;51.378;0.094;2023-10-08T06:01:51;15.10;79.10
26254;DHT22;53339;51.378;0.094;2023-10-08T06:04:36;15.10;79.00
26254;DHT22;53339;51.378;0.094;2023-10-08T06:07:27;15.10;78.90
26254;DHT22;53339;51.378;0.094;2023-10-08T06:10:19;15.10;78.80
26254;DHT22;53339;51.378;0.094;2023-10-08T06:13:01;15.10;78.80
26254;DHT22;53339;51.378;0.094;2023-10-08T06:15:58;15.10;78.80
26254;DHT22;53339;51.378;0.094;2023-10-08T06:18:35;15.10;78.80
26254;DHT22;53339;51.378;0.094;2023-10-08T06:21:06;15.10;78.90
26254;DHT22;53339;51.378;0.094;2023-10-08T06:23:44;15.10;78.90
26254;DHT22;53339;51.378;0.094;2023-10-08T06:26:15;15.10;78.90
26254;DHT22;53339;51.378;0.094;2023-10-08T06:28:49;15.10;78.90
26254;DHT22;53339;51.378;0.094;2023-10-08T06:31:17;15.10;78.90
26254;DHT22;53339;51.378;0.094;2023-10-08T06:33:45;15.10;78.90
26254;DHT22;53339;51.378;0.094;2023-10-08T06:36:20;15.10;78.90
26254;DHT22;53339;51.378;0.094;2023-10-08T06:38:56;15.10;78.90
26254;DHT22;53339;51.378;0.094;2023-10-08T06:41:30;15.20;78.80
26254;DHT22;53339;51.378;0.094;2023-10-08T06:44:19;15.20;78.80
26254;DHT22;53339;51.378;0.094;2023-10-08T06:46:46;15.20;78.90
26254;DHT22;53339;51.378;0.094;2023-10-08T06:49:15;15.20;78.90
26254;DHT22;53339;51.378;0.094;2023-10-08T06:51:46;15.20;78.90
26254;DHT22;53339;51.378;0.094;2023-10-08T06:54:19;15.20;78.80
26254;DHT22;53339;51.378;0.094;2023-10-08T06:57:01;15.20;78.90
26254;DHT22;53339;51.378;0.094;2023-10-08T06:59:31;15.20;78.90
26254;DHT22;53339;51.378;0.094;2023-10-08T07:02:02;15.20;78.90
26254;DHT22;53339;51.378;0.094;2023-10-08T07:04:30;15.30;78.90
26254;DHT22;53339;51.378;0.094;2023-10-08T07:06:58;15.30;78.90
26254;DHT22;53339;51.378;0.094;2023-10-08T07:09:27;15.40;78.90
26254;DHT22;53339;51.378;0.094;2023-10-08T07:12:01;15.40;78.80
26254;DHT22;53339;51.378;0.094;2023-10-08T07:14:36;15.40;78.80
26254;DHT22;53339;51.378;0.094;2023-10-08T07:17:06;15.40;78.70
26254;DHT22;53339;51.378;0.094;2023-10-08T07:19:36;15.40;78.70
26254;DHT22;53339;51.378;0.094;2023-10-08T07:22:18;15.50;78.70
26254;DHT22;53339;51.378;0.094;2023-10-08T07:25:05;15.50;78.70
26254;DHT22;53339;51.378;0.094;2023-10-08T07:27:36;15.60;78.70
26254;DHT22;53339;51.378;0.094;2023-10-08T07:30:05;15.60;78.60
26254;DHT22;53339;51.378;0.094;2023-10-08T07:32:37;15.70;78.60
26254;DHT22;53339;51.378;0.094;2023-10-08T07:35:07;15.70;78.60
26254;DHT22;53339;51.378;0.094;2023-10-08T07:37:47;15.70;78.60
26254;DHT22;53339;51.378;0.094;2023-10-08T07:40:26;15.80;78.50
26254;DHT22;53339;51.378;0.094;2023-10-08T07:43:08;15.90;78.50
26254;DHT22;53339;51.378;0.094;2023-10-08T07:45:36;15.90;78.50
26254;DHT22;53339;51.378;0.094;2023-10-08T07:48:09;16.00;78.40
26254;DHT22;53339;51.378;0.094;2023-10-08T07:50:44;16.00;78.40
26254;DHT22;53339;51.378;0.094;2023-10-08T07:53:16;16.10;78.40
26254;DHT22;53339;51.378;0.094;2023-10-08T07:55:49;16.10;78.40
26254;DHT22;53339;51.378;0.094;2023-10-08T07:58:24;16.20;78.50
26254;DHT22;53339;51.378;0.094;2023-10-08T08:01:06;16.20;78.50
26254;DHT22;53339;51.378;0.094;2023-10-08T08:03:36;16.30;78.50
26254;DHT22;53339;51.378;0.094;2023-10-08T08:06:11;16.40;78.40
26254;DHT22;53339;51.378;0.094;2023-10-08T08:08:47;16.60;78.30
26254;DHT22;53339;51.378;0.094;2023-10-08T08:11:26;16.70;78.10
26254;DHT22;53339;51.378;0.094;2023-10-08T08:13:56;16.70;78.00
26254;DHT22;53339;51.378;0.094;2023-10-08T08:16:45;16.80;78.00
26254;DHT22;53339;51.378;0.094;2023-10-08T08:19:27;17.00;77.90
26254;DHT22;53339;51.378;0.094;2023-10-08T08:22:16;17.10;77.80
26254;DHT22;53339;51.378;0.094;2023-10-08T08:25:09;17.10;77.70
26254;DHT22;53339;51.378;0.094;2023-10-08T08:27:51;17.20;77.60
26254;DHT22;53339;51.378;0.094;2023-10-08T08:30:23;17.30;77.50
26254;DHT22;53339;51.378;0.094;2023-10-08T08:32:54;17.30;77.40
26254;DHT22;53339;51.378;0.094;2023-10-08T08:35:29;17.40;77.40
26254;DHT22;53339;51.378;0.094;2023-10-08T08:37:56;17.50;77.40
26254;DHT22;53339;51.378;0.094;2023-10-08T08:40:25;17.50;77.40
26254;DHT22;53339;51.378;0.094;2023-10-08T08:42:59;17.60;77.30
26254;DHT22;53339;51.378;0.094;2023-10-08T08:45:30;17.70;77.20
26254;DHT22;53339;51.378;0.094;2023-10-08T08:48:03;17.70;77.00
26254;DHT22;53339;51.378;0.094;2023-10-08T08:50:34;17.90;76.70
26254;DHT22;53339;51.378;0.094;2023-10-08T08:53:03;17.90;76.40
26254;DHT22;53339;51.378;0.094;2023-10-08T08:55:38;18.10;76.40
26254;DHT22;53339;51.378;0.094;2023-10-08T08:58:13;18.20;76.30
26254;DHT22;53339;51.378;0.094;2023-10-08T09:00:47;18.30;76.20
26254;DHT22;53339;51.378;0.094;2023-10-08T09:03:21;18.40;76.00
26254;DHT22;53339;51.378;0.094;2023-10-08T09:06:04;18.50;75.80
26254;DHT22;53339;51.378;0.094;2023-10-08T09:08:35;18.60;74.90
26254;DHT22;53339;51.378;0.094;2023-10-08T09:11:03;18.70;74.40
26254;DHT22;53339;51.378;0.094;2023-10-08T09:13:34;18.80;74.60
26254;DHT22;53339;51.378;0.094;2023-10-08T09:16:08;18.90;74.20
26254;DHT22;53339;51.378;0.094;2023-10-08T09:18:36;19.00;73.60
26254;DHT22;53339;51.378;0.094;2023-10-08T09:21:11;19.00;73.50
26254;DHT22;53339;51.378;0.094;2023-10-08T09:23:55;19.10;73.50
26254;DHT22;53339;51.378;0.094;2023-10-08T09:26:29;19.20;73.40
26254;DHT22;53339;51.378;0.094;2023-10-08T09:29:11;19.20;73.30
26254;DHT22;53339;51.378;0.094;2023-10-08T09:31:40;19.30;73.20
26254;DHT22;53339;51.378;0.094;2023-10-08T09:34:09;19.40;73.00
26254;DHT22;53339;51.378;0.094;2023-10-08T09:36:40;19.40;72.80
26254;DHT22;53339;51.378;0.094;2023-10-08T09:39:17;19.40;72.70
26254;DHT22;53339;51.378;0.094;2023-10-08T09:41:53;19.50;72.50
26254;DHT22;53339;51.378;0.094;2023-10-08T09:44:23;19.50;72.40
26254;DHT22;53339;51.378;0.094;2023-10-08T09:47:04;19.60;72.50
26254;DHT22;53339;51.378;0.094;2023-10-08T09:49:53;19.60;72.40
26254;DHT22;53339;51.378;0.094;2023-10-08T09:52:31;19.70;72.30
26254;DHT22;53339;51.378;0.094;2023-10-08T09:55:02;19.80;72.00
26254;DHT22;53339;51.378;0.094;2023-10-08T09:57:38;19.90;72.00
26254;DHT22;53339;51.378;0.094;2023-10-08T10:00:07;20.00;70.80
26254;DHT22;53339;51.378;0.094;2023-10-08T10:02:59;20.10;70.20
26254;DHT22;53339;51.378;0.094;2023-10-08T10:05:34;20.20;70.40
26254;DHT22;53339;51.378;0.094;2023-10-08T10:08:05;20.20;70.10
26254;DHT22;53339;51.378;0.094;2023-10-08T10:10:38;20.30;70.20
26254;DHT22;53339;51.378;0.094;2023-10-08T10:13:09;20.30;70.20
26254;DHT22;53339;51.378;0.094;2023-10-08T10:15:48;20.40;69.60
26254;DHT22;53339;51.378;0.094;2023-10-08T10:18:27;20.40;69.40
26254;DHT22;53339;51.378;0.094;2023-10-08T10:23:55;20.60;69.00
26254;DHT22;53339;51.378;0.094;2023-10-08T10:26:31;20.70;69.10
26254;DHT22;53339;51.378;0.094;2023-10-08T10:31:49;20.80;68.90
26254;DHT22;53339;51.378;0.094;2023-10-08T10:34:26;20.80;68.30
26254;DHT22;53339;51.378;0.094;2023-10-08T10:36:59;20.90;68.70
26254;DHT22;53339;51.378;0.094;2023-10-08T10:39:32;20.90;68.80
26254;DHT22;53339;51.378;0.094;2023-10-08T10:42:02;20.90;68.80
26254;DHT22;53339;51.378;0.094;2023-10-08T10:44:37;21.00;68.60
26254;DHT22;53339;51.378;0.094;2023-10-08T10:47:08;21.10;67.90
26254;DHT22;53339;51.378;0.094;2023-10-08T10:49:47;21.10;67.80
26254;DHT22;53339;51.378;0.094;2023-10-08T10:52:33;21.20;67.90
26254;DHT22;53339;51.378;0.094;2023-10-08T10:55:25;21.30;66.30
26254;DHT22;53339;51.378;0.094;2023-10-08T10:58:00;21.30;65.20
26254;DHT22;53339;51.378;0.094;2023-10-08T11:00:33;21.40;65.30
26254;DHT22;53339;51.378;0.094;2023-10-08T11:03:03;21.40;64.60
26254;DHT22;53339;51.378;0.094;2023-10-08T11:05:57;21.50;65.00
26254;DHT22;53339;51.378;0.094;2023-10-08T11:08:34;21.50;64.40
26254;DHT22;53339;51.378;0.094;2023-10-08T11:11:05;21.50;63.90
26254;DHT22;53339;51.378;0.094;2023-10-08T11:13:36;21.70;63.50
26254;DHT22;53339;51.378;0.094;2023-10-08T11:16:12;21.70;63.70
26254;DHT22;53339;51.378;0.094;2023-10-08T11:18:46;21.80;63.90
26254;DHT22;53339;51.378;0.094;2023-10-08T11:21:26;21.90;62.30
26254;DHT22;53339;51.378;0.094;2023-10-08T11:24:01;22.10;61.00
26254;DHT22;53339;51.378;0.094;2023-10-08T11:26:54;22.20;61.10
26254;DHT22;53339;51.378;0.094;2023-10-08T11:29:48;22.20;61.10
26254;DHT22;53339;51.378;0.094;2023-10-08T11:32:27;22.30;60.90
26254;DHT22;53339;51.378;0.094;2023-10-08T11:35:00;22.40;60.90
26254;DHT22;53339;51.378;0.094;2023-10-08T11:37:29;22.50;60.60
26254;DHT22;53339;51.378;0.094;2023-10-08T11:40:04;22.70;59.90
26254;DHT22;53339;51.378;0.094;2023-10-08T11:42:49;22.80;60.60
26254;DHT22;53339;51.378;0.094;2023-10-08T11:45:18;22.90;61.00
26254;DHT22;53339;51.378;0.094;2023-10-08T11:47:47;22.90;59.80
26254;DHT22;53339;51.378;0.094;2023-10-08T11:50:49;23.10;60.40
26254;DHT22;53339;51.378;0.094;2023-10-08T11:53:19;23.10;58.10
26254;DHT22;53339;51.378;0.094;2023-10-08T11:55:47;23.20;57.70
26254;DHT22;53339;51.378;0.094;2023-10-08T11:58:17;23.30;58.20
26254;DHT22;53339;51.378;0.094;2023-10-08T12:00:45;23.40;56.90
26254;DHT22;53339;51.378;0.094;2023-10-08T12:03:16;23.50;56.10
26254;DHT22;53339;51.378;0.094;2023-10-08T12:06:19;23.50;55.10
26254;DHT22;53339;51.378;0.094;2023-10-08T12:09:34;23.60;55.40
26254;DHT22;53339;51.378;0.094;2023-10-08T12:12:12;23.70;54.50
26254;DHT22;53339;51.378;0.094;2023-10-08T12:14:43;23.80;54.50
26254;DHT22;53339;51.378;0.094;2023-10-08T12:17:20;23.90;54.10
26254;DHT22;53339;51.378;0.094;2023-10-08T12:19:59;23.90;54.10
26254;DHT22;53339;51.378;0.094;2023-10-08T12:22:50;23.90;53.70
26254;DHT22;53339;51.378;0.094;2023-10-08T12:26:06;23.90;54.60
26254;DHT22;53339;51.378;0.094;2023-10-08T12:28:47;24.00;53.60
26254;DHT22;53339;51.378;0.094;2023-10-08T12:31:19;24.10;53.20
26254;DHT22;53339;51.378;0.094;2023-10-08T12:34:09;24.10;52.20
26254;DHT22;53339;51.378;0.094;2023-10-08T12:36:50;24.10;52.00
26254;DHT22;53339;51.378;0.094;2023-10-08T12:39:25;24.10;51.00
26254;DHT22;53339;51.378;0.094;2023-10-08T12:42:17;24.10;51.60
26254;DHT22;53339;51.378;0.094;2023-10-08T12:44:56;24.10;51.00
26254;DHT22;53339;51.378;0.094;2023-10-08T12:47:28;24.20;51.30
26254;DHT22;53339;51.378;0.094;2023-10-08T12:50:00;24.20;50.60
26254;DHT22;53339;51.378;0.094;2023-10-08T12:52:39;24.20;51.30
26254;DHT22;53339;51.378;0.094;2023-10-08T12:55:24;24.10;50.80
26254;DHT22;53339;51.378;0.094;2023-10-08T12:58:10;24.10;50.60
26254;DHT22;53339;51.378;0.094;2023-10-08T13:00:47;24.10;50.50
26254;DHT22;53339;51.378;0.094;2023-10-08T13:03:40;24.20;50.70
26254;DHT22;53339;51.378;0.094;2023-10-08T13:06:16;24.10;50.80
26254;DHT22;53339;51.378;0.094;2023-10-08T13:08:53;24.10;50.40
26254;DHT22;53339;51.378;0.094;2023-10-08T13:11:32;24.20;50.70
26254;DHT22;53339;51.378;0.094;2023-10-08T13:14:15;24.30;49.60
26254;DHT22;53339;51.378;0.094;2023-10-08T13:16:43;24.30;49.00
26254;DHT22;53339;51.378;0.094;2023-10-08T13:19:13;24.20;49.10
26254;DHT22;53339;51.378;0.094;2023-10-08T13:21:55;24.30;49.50
26254;DHT22;53339;51.378;0.094;2023-10-08T13:24:24;24.30;49.80
26254;DHT22;53339;51.378;0.094;2023-10-08T13:26:59;24.30;50.30
26254;DHT22;53339;51.378;0.094;2023-10-08T13:29:30;24.40;50.90
26254;DHT22;53339;51.378;0.094;2023-10-08T13:32:07;24.40;50.80
26254;DHT22;53339;51.378;0.094;2023-10-08T13:34:36;24.40;50.30
26254;DHT22;53339;51.378;0.094;2023-10-08T13:37:07;24.40;50.70
26254;DHT22;53339;51.378;0.094;2023-10-08T13:39:35;24.50;51.30
26254;DHT22;53339;51.378;0.094;2023-10-08T13:42:04;24.60;51.30
26254;DHT22;53339;51.378;0.094;2023-10-08T13:44:46;24.70;51.20
26254;DHT22;53339;51.378;0.094;2023-10-08T13:47:14;24.80;50.90
26254;DHT22;53339;51.378;0.094;2023-10-08T13:49:47;25.00;51.50
26254;DHT22;53339;51.378;0.094;2023-10-08T13:52:21;25.10;51.50
26254;DHT22;53339;51.378;0.094;2023-10-08T13:54:54;25.20;51.50
26254;DHT22;53339;51.378;0.094;2023-10-08T13:57:29;25.40;51.90
26254;DHT22;53339;51.378;0.094;2023-10-08T14:00:09;25.60;51.00
26254;DHT22;53339;51.378;0.094;2023-10-08T14:02:43;25.70;50.70
26254;DHT22;53339;51.378;0.094;2023-10-08T14:05:23;25.70;50.20
26254;DHT22;53339;51.378;0.094;2023-10-08T14:07:55;25.70;50.30
26254;DHT22;53339;51.378;0.094;2023-10-08T14:10:24;25.70;50.20
26254;DHT22;53339;51.378;0.094;2023-10-08T14:13:04;26.10;49.80
26254;DHT22;53339;51.378;0.094;2023-10-08T14:15:52;26.80;47.90
26254;DHT22;53339;51.378;0.094;2023-10-08T14:18:24;27.40;46.50
26254;DHT22;53339;51.378;0.094;2023-10-08T14:21:00;27.90;44.60
26254;DHT22;53339;51.378;0.094;2023-10-08T14:23:41;28.50;44.60
26254;DHT22;53339;51.378;0.094;2023-10-08T14:26:25;29.30;43.90
26254;DHT22;53339;51.378;0.094;2023-10-08T14:29:03;30.00;43.70
26254;DHT22;53339;51.378;0.094;2023-10-08T14:31:49;30.40;39.80
26254;DHT22;53339;51.378;0.094;2023-10-08T14:34:25;30.70;38.60
26254;DHT22;53339;51.378;0.094;2023-10-08T14:37:17;30.60;37.80
26254;DHT22;53339;51.378;0.094;2023-10-08T14:40:04;30.40;37.60
26254;DHT22;53339;51.378;0.094;2023-10-08T14:42:50;30.30;39.80
26254;DHT22;53339;51.378;0.094;2023-10-08T14:45:34;30.60;40.60
26254;DHT22;53339;51.378;0.094;2023-10-08T14:48:06;31.00;38.40
26254;DHT22;53339;51.378;0.094;2023-10-08T14:50:43;31.20;37.30
26254;DHT22;53339;51.378;0.094;2023-10-08T14:53:22;31.30;37.90
26254;DHT22;53339;51.378;0.094;2023-10-08T14:55:55;31.70;37.70
26254;DHT22;53339;51.378;0.094;2023-10-08T14:58:29;31.90;36.30
26254;DHT22;53339;51.378;0.094;2023-10-08T15:01:12;32.10;36.00
26254;DHT22;53339;51.378;0.094;2023-10-08T15:03:41;32.10;35.50
26254;DHT22;53339;51.378;0.094;2023-10-08T15:06:09;32.10;35.90
26254;DHT22;53339;51.378;0.094;2023-10-08T15:08:46;32.10;34.30
26254;DHT22;53339;51.378;0.094;2023-10-08T15:11:14;32.10;35.70
26254;DHT22;53339;51.378;0.094;2023-10-08T15:13:48;32.00;34.90
26254;DHT22;53339;51.378;0.094;2023-10-08T15:16:22;31.80;35.60
26254;DHT22;53339;51.378;0.094;2023-10-08T15:18:52;31.70;35.60
26254;DHT22;53339;51.378;0.094;2023-10-08T15:21:29;31.30;34.70
26254;DHT22;53339;51.378;0.094;2023-10-08T15:24:00;30.90;35.40
26254;DHT22;53339;51.378;0.094;2023-10-08T15:27:10;30.60;36.70
26254;DHT22;53339;51.378;0.094;2023-10-08T15:29:38;30.10;37.50
26254;DHT22;53339;51.378;0.094;2023-10-08T15:32:06;29.60;37.10
26254;DHT22;53339;51.378;0.094;2023-10-08T15:34:34;28.80;38.00
26254;DHT22;53339;51.378;0.094;2023-10-08T15:37:23;28.30;39.20
26254;DHT22;53339;51.378;0.094;2023-10-08T15:39:51;27.90;39.70
26254;DHT22;53339;51.378;0.094;2023-10-08T15:42:21;27.40;40.40
26254;DHT22;53339;51.378;0.094;2023-10-08T15:44:49;26.80;41.60
26254;DHT22;53339;51.378;0.094;2023-10-08T15:47:17;26.40;42.60
26254;DHT22;53339;51.378;0.094;2023-10-08T15:49:45;26.10;43.50
26254;DHT22;53339;51.378;0.094;2023-10-08T15:52:15;25.80;44.30
26254;DHT22;53339;51.378;0.094;2023-10-08T15:54:44;25.40;45.20
26254;DHT22;53339;51.378;0.094;2023-10-08T15:57:15;25.10;45.90
26254;DHT22;53339;51.378;0.094;2023-10-08T15:59:43;24.80;46.70
26254;DHT22;53339;51.378;0.094;2023-10-08T16:02:11;24.60;47.20
26254;DHT22;53339;51.378;0.094;2023-10-08T16:04:41;24.40;47.90
26254;DHT22;53339;51.378;0.094;2023-10-08T16:07:24;24.30;48.60
26254;DHT22;53339;51.378;0.094;2023-10-08T16:09:52;24.10;49.00
26254;DHT22;53339;51.378;0.094;2023-10-08T16:12:22;23.90;49.40
26254;DHT22;53339;51.378;0.094;2023-10-08T16:14:55;23.80;49.90
26254;DHT22;53339;51.378;0.094;2023-10-08T16:17:42;23.60;50.30
26254;DHT22;53339;51.378;0.094;2023-10-08T16:20:12;23.50;51.40
26254;DHT22;53339;51.378;0.094;2023-10-08T16:23:01;23.40;51.70
26254;DHT22;53339;51.378;0.094;2023-10-08T16:25:35;23.30;51.80
26254;DHT22;53339;51.378;0.094;2023-10-08T16:28:04;23.20;51.70
26254;DHT22;53339;51.378;0.094;2023-10-08T16:30:32;23.10;52.30
26254;DHT22;53339;51.378;0.094;2023-10-08T16:33:02;23.00;52.70
26254;DHT22;53339;51.378;0.094;2023-10-08T16:35:34;22.90;52.60